Attica, NY

9:59 PM EST on November 27, 2014 (GMT -0500)
South of village | Change Station
CLOSE
Current Station
Personal Weather Station
Location: Attica, NY
Elevation: 1007 ft
Nearby Weather Stations

Elev 1007 ft 42.84 °N, 78.29 °W | Updated 15 seconds ago

Snow
Snow
27.7 °F
Feels Like 28 °F
N
0.0
Wind Variable Wind from North
Gusts 1.7 mph

Today
High -- | Low -- °F
--% Chance of Precip.
Yesterday
High -- | Low -- °F
Precip. -- in
7:19 AM 4:41 PM
Waxing Crescent, 35% visible
Pressure 30.12 in
Visibility 1.5 miles
Clouds Scattered Clouds 600 ft
Overcast 1900 ft
Windchill 28 °F
Dew Point 28 °F
Humidity 99%
Rainfall 0.02 in
Snow Depth Not available.
UV 0 out of 12
Pollen .10 out of 12
Air Quality Not available.
Flu Activity Not available.
METAR KBUF 280254Z 36005KT 1 1/2SM -SN BR SCT006 OVC019 M02/M03 A3009 RMK AO2 SLP199 SNINCR 1/1 P0003 60005 T10171033 51010

More Conditions Fewer Conditions

Pressure 30.12 in
Visibility 1.5 miles
Clouds Scattered Clouds 600 ft
Overcast 1900 ft
Windchill 28 °F
Dew Point 28 °F
Humidity 99%
Rainfall 0.02 in
Snow Depth Not available.
UV 0 out of 12
Pollen .10 out of 12
Air Quality Not available.
Flu Activity Not available.
METAR KBUF 280254Z 36005KT 1 1/2SM -SN BR SCT006 OVC019 M02/M03 A3009 RMK AO2 SLP199 SNINCR 1/1 P0003 60005 T10171033 51010

More Conditions Fewer Conditions

10-Day Weather Forecast

Almanac

Astronomy

Nov. 27, 2014 Rise Set
Actual Time
Civil Twilight
Nautical Twilight
Astronomical Twilight
Moon
Length of Visible Light
Length of Day
Tomorrow will be .
, % of the Moon is Illuminated

Today's Extremes

State Highs State Lows

Community

WunderPhotos

Upload Photos

1,774,164 photos uploaded!

WunderBlogs® & News

Nearby

Air Quality

  Air Quality AQ Index Pollutant
Not available.

Snow Depth

Station Depth Elevation

Earthquake Activity

City Distance Mag. Time & Date
Minimum magnitude displayed is 2.5.

Coastal Water Temperatures

Place Temperature

Nearby Weather Stations